LEHC

Details ICAO LEHC (HSK)
Name Huesca/Pirineos
Region Spain
Timezone Europe/Madrid (UTC+2.0)
Plans Departing 8
Arriving 14
Stats Elevation 1,768 ft / 539 m (AMSL)
Location 42.078366° -0.320055°
Runways 2
Magnetic Variation 0.226° E
Sunrise 2018-05-28 04:31:43 UTC / 2018-05-28 06:31:43 Local
Sunset 2018-05-28 19:28:17 UTC / 2018-05-28 21:28:17 Local
Advertisement - Login to hide

Runways

ID Width Length Bearing (true) Bearing (mag) Surface Threshold Offset Overrun Length
12L 39 ft / 12 m 2,010 ft / 613 m 122.99° 122.76° Asphalt 0 ft / 0 m 0 ft / 0 m
12R 148 ft / 45 m 6,881 ft / 2,097 m 122.91° 122.68° Asphalt 0 ft / 0 m 148 ft / 45 m
30L 148 ft / 45 m 6,881 ft / 2,097 m 302.93° 302.70° Asphalt 0 ft / 0 m 0 ft / 0 m
30R 39 ft / 12 m 2,010 ft / 613 m 302.99° 302.76° Asphalt 0 ft / 0 m 0 ft / 0 m

Map

Weather


0- 5 10 15 20 25 30 35+ Temperature / ° C

Clouds and Precipitation
Forecast for 2018-05-28 00:00 UTC. Updated 3 hours ago

Ground ~20,000 ft ~40,000 ft Winds

METAR

LEHC 280130Z AUTO 28008KT 9999 VCTS FEW046 OVC050 ///CB 14/13 Q1014

TAF

Not found

Frequencies

Tower 128.95 MHz TWR
Warning: Do not use this data for real-world aviation or navigation. No guarantee of current accuracy is given.